Terminal Aerodrome Forecast
Issued by NWS

Home | Current Version | Previous Version | Text Only | Print | Product List | Glossary On
Versions: 1 2 3 4 5 6 7 8 9 10 11 12
000
FTUS46 KSTO 301142
TAFMHR
TAF
KMHR 301142Z 3012/3112 14008KT P6SM VCSH OVC080
     FM301600 32015KT P6SM BKN050
     FM301800 34020G28KT P6SM SKC
     FM310300 33015KT P6SM SKC=

USA.gov is the U.S. government's official web portal to all federal, state and local government web resources and services.